»·PEaware :: WAT590 KDEN-KLGB

WAT590 :: KDEN-KLGB

FLIGHT INFORMATION

Flight Status: Arrived
Operator:
Walker Air Transport
More flights by this operator :: More flights under this callsign
Pilot: Anonymous 10623 (10623)
Aircraft: AIRBUS A300B4-600
(A306)
More flights by this aircraft type
Origin: KDEN Denver Intl
United States
Destination: KLGB Long Beach
United States
More flights between these airports :: More routes between these airports
Route: CONNR7 WERNR ZAKRY BUGGG Q114 NATEE DSNEE4
File this flight plan on PilotEdge
Remarks:
Altitude:
(Current/Filed)
34,000ft
Speed:
(Current/Filed)
459kts
Departed: 07-Mar-21 12:51 PM
Arrived: 07-Mar-21 02:57 PM
Distance/Time
Traveled:
741nm/2:06
Distance/Time
To Go:
Arrived

Flight Plot

Page will automatically refresh every two minutes.

Flight plan parsing failed; only flown route is shown


Map Options




Map Legend


Flown Route
Filed Route
Departure Airport
Arrival Airport
Navaid (VOR, NDB)
Fix

Horizontal Profiles

Position Reports

Time Latitude Longitude Heading Altitude Ground
Speed
07-Mar-21 12:14 39.858110 -104.674582 0 5384ft 0kts
07-Mar-21 12:15 39.858110 -104.674582 0 5384ft 0kts
07-Mar-21 12:16 39.858110 -104.674582 0 5384ft 0kts
07-Mar-21 12:17 39.858110 -104.674583 0 5383ft 0kts
07-Mar-21 12:18 39.858110 -104.674583 0 5383ft 0kts
07-Mar-21 12:19 39.858110 -104.674583 0 5383ft 0kts
07-Mar-21 12:20 39.858110 -104.674583 0 5383ft 0kts
07-Mar-21 12:21 39.858110 -104.674583 0 5383ft 0kts
07-Mar-21 12:22 39.858110 -104.674582 0 5383ft 0kts
07-Mar-21 12:23 39.858110 -104.674582 0 5383ft 0kts
07-Mar-21 12:24 39.858110 -104.674582 0 5383ft 0kts
07-Mar-21 12:25 39.858110 -104.674582 0 5383ft 0kts
07-Mar-21 12:26 39.858110 -104.674582 0 5383ft 0kts
07-Mar-21 12:27 39.858110 -104.674582 0 5383ft 0kts
07-Mar-21 12:28 39.858110 -104.674582 0 5383ft 0kts
07-Mar-21 12:29 39.858110 -104.674582 0 5383ft 0kts
07-Mar-21 12:30 39.858110 -104.674582 0 5383ft 0kts
07-Mar-21 12:31 39.858110 -104.674582 0 5383ft 0kts
07-Mar-21 12:32 39.858110 -104.674582 0 5383ft 0kts
07-Mar-21 12:34 39.858110 -104.674582 0 5383ft 0kts
07-Mar-21 12:35 39.858110 -104.674582 0 5383ft 0kts
07-Mar-21 12:36 39.858103 -104.674583 0 5384ft 0kts
07-Mar-21 12:37 39.857677 -104.674592 354 5384ft 2kts
07-Mar-21 12:38 39.857326 -104.674190 278 5384ft 2kts
07-Mar-21 12:39 39.857318 -104.674072 269 5383ft 0kts
07-Mar-21 12:40 39.857318 -104.674072 269 5383ft 0kts
07-Mar-21 12:41 39.857318 -104.674072 269 5383ft 0kts
07-Mar-21 12:42 39.857316 -104.675598 270 5383ft 9kts
07-Mar-21 12:43 39.856925 -104.679454 219 5383ft 2kts
07-Mar-21 12:44 39.856671 -104.680860 269 5384ft 4kts
07-Mar-21 12:45 39.856846 -104.682875 270 5379ft 1kts
07-Mar-21 12:46 39.854020 -104.683999 179 5377ft 18kts
07-Mar-21 12:47 39.847744 -104.684056 180 5374ft 19kts
07-Mar-21 12:48 39.842774 -104.684228 179 5370ft 5kts
07-Mar-21 12:49 39.842167 -104.684204 178 5370ft 4kts
07-Mar-21 12:50 39.840631 -104.684664 270 5370ft 2kts
07-Mar-21 12:51 39.840900 -104.714783 268 5371ft 198kts
07-Mar-21 12:52 39.842467 -104.804219 269 8604ft 215kts
07-Mar-21 12:53 39.838074 -104.918258 257 11150ft 314kts
07-Mar-21 12:53 39.810623 -105.062618 255 14143ft 401kts
07-Mar-21 12:55 39.778429 -105.224866 255 19661ft 401kts
07-Mar-21 12:56 39.749391 -105.368764 255 22757ft 422kts
07-Mar-21 12:56 39.724705 -105.489955 255 23255ft 398kts
07-Mar-21 12:58 39.698769 -105.616855 255 23256ft 388kts
07-Mar-21 12:59 39.678199 -105.736072 259 23269ft 388kts
07-Mar-21 12:59 39.664627 -105.837721 259 23277ft 388kts
07-Mar-21 13:01 39.637688 -106.037271 259 23915ft 393kts
07-Mar-21 13:01 39.621930 -106.153493 259 26136ft 401kts
07-Mar-21 13:02 39.606709 -106.265470 259 27722ft 410kts
07-Mar-21 13:03 39.582859 -106.439209 258 29920ft 423kts
07-Mar-21 13:04 39.562020 -106.588494 258 31371ft 433kts
07-Mar-21 13:05 39.531424 -106.739156 244 32329ft 437kts
07-Mar-21 13:06 39.482953 -106.883883 247 33607ft 435kts
07-Mar-21 13:07 39.437900 -107.026241 247 34251ft 418kts
07-Mar-21 13:08 39.394022 -107.164860 247 34254ft 415kts
07-Mar-21 13:09 39.350947 -107.303778 248 34252ft 415kts
07-Mar-21 13:10 39.308367 -107.443122 248 34229ft 415kts
07-Mar-21 13:11 39.266015 -107.581690 248 34316ft 414kts
07-Mar-21 13:12 39.223758 -107.719444 247 34320ft 413kts
07-Mar-21 13:13 39.183277 -107.850776 247 34319ft 414kts
07-Mar-21 13:14 39.140011 -107.990636 247 34318ft 414kts
07-Mar-21 13:15 39.097148 -108.128519 247 34250ft 415kts
07-Mar-21 13:16 39.053970 -108.266678 247 34170ft 415kts
07-Mar-21 13:17 39.010692 -108.404397 247 34172ft 417kts
07-Mar-21 13:18 38.966785 -108.543362 247 34178ft 417kts
07-Mar-21 13:19 38.923829 -108.678553 246 34191ft 417kts
07-Mar-21 13:20 38.884877 -108.800344 246 34203ft 416kts
07-Mar-21 13:21 38.837363 -108.948374 246 34203ft 416kts
07-Mar-21 13:22 38.795456 -109.078325 246 34176ft 416kts
07-Mar-21 13:23 38.749889 -109.218940 246 34138ft 417kts
07-Mar-21 13:24 38.704889 -109.357100 246 34135ft 417kts
07-Mar-21 13:25 38.659974 -109.493963 245 34134ft 417kts
07-Mar-21 13:26 38.610992 -109.629207 245 34133ft 418kts
07-Mar-21 13:27 38.562485 -109.765352 244 34139ft 418kts
07-Mar-21 13:28 38.514201 -109.901515 244 34138ft 418kts
07-Mar-21 13:29 38.466056 -110.037302 244 34148ft 418kts
07-Mar-21 13:30 38.417612 -110.173613 244 34162ft 418kts
07-Mar-21 13:31 38.369312 -110.309009 244 34161ft 418kts
07-Mar-21 13:32 38.320741 -110.444549 244 34160ft 418kts
07-Mar-21 13:33 38.272097 -110.579628 244 34159ft 417kts
07-Mar-21 13:34 38.223948 -110.712561 244 34165ft 417kts
07-Mar-21 13:35 38.175116 -110.846673 244 34163ft 416kts
07-Mar-21 13:36 38.126136 -110.980688 244 34172ft 416kts
07-Mar-21 13:37 38.077308 -111.113698 244 34185ft 415kts
07-Mar-21 13:38 38.028158 -111.246984 244 34187ft 414kts
07-Mar-21 13:39 37.979107 -111.379390 244 34186ft 414kts
07-Mar-21 13:40 37.930114 -111.511062 244 34185ft 413kts
07-Mar-21 13:41 37.881701 -111.640572 244 34191ft 413kts
07-Mar-21 13:42 37.832499 -111.771456 244 34200ft 413kts
07-Mar-21 13:43 37.782758 -111.903315 244 34211ft 413kts
07-Mar-21 13:44 37.733037 -112.034627 244 34220ft 411kts
07-Mar-21 13:45 37.683485 -112.164886 244 34226ft 412kts
07-Mar-21 13:46 37.634945 -112.290175 238 34229ft 410kts
07-Mar-21 13:47 37.565438 -112.408388 235 34233ft 410kts
07-Mar-21 13:48 37.499431 -112.525999 236 34232ft 410kts
07-Mar-21 13:49 37.435128 -112.640737 236 34218ft 409kts
07-Mar-21 13:50 37.369975 -112.756640 236 34239ft 407kts
07-Mar-21 13:51 37.304091 -112.873582 236 34217ft 407kts
07-Mar-21 13:52 37.238351 -112.990021 236 34162ft 406kts
07-Mar-21 13:53 37.172725 -113.105908 236 34120ft 405kts
07-Mar-21 13:54 37.106492 -113.219713 233 34107ft 406kts
07-Mar-21 13:55 37.035235 -113.327734 233 34105ft 405kts
07-Mar-21 13:56 36.972016 -113.424319 233 34102ft 404kts
07-Mar-21 13:57 36.900870 -113.533138 233 34100ft 403kts
07-Mar-21 13:58 36.830489 -113.640667 234 34104ft 401kts
07-Mar-21 13:59 36.760281 -113.747542 233 34112ft 400kts
07-Mar-21 14:00 36.689282 -113.855340 233 34115ft 400kts
07-Mar-21 14:01 36.618623 -113.960465 233 34116ft 399kts
07-Mar-21 14:02 36.546659 -114.065812 233 34122ft 397kts
07-Mar-21 14:03 36.474777 -114.171237 233 34105ft 397kts
07-Mar-21 14:04 36.403355 -114.275882 233 34081ft 398kts
07-Mar-21 14:05 36.331608 -114.380802 233 34058ft 396kts
07-Mar-21 14:06 36.259914 -114.485459 233 34044ft 396kts
07-Mar-21 14:07 36.188389 -114.589523 233 34030ft 395kts
07-Mar-21 14:08 36.116845 -114.693177 232 34056ft 396kts
07-Mar-21 14:09 36.044876 -114.796975 233 34055ft 395kts
07-Mar-21 14:10 35.972195 -114.899626 231 34051ft 395kts
07-Mar-21 14:11 35.898115 -114.999851 232 34057ft 395kts
07-Mar-21 14:12 35.824229 -115.100207 232 34078ft 394kts
07-Mar-21 14:13 35.750244 -115.200748 232 34096ft 394kts
07-Mar-21 14:14 35.676677 -115.300610 232 34096ft 392kts
07-Mar-21 14:15 35.603130 -115.400064 232 34095ft 392kts
07-Mar-21 14:16 35.529182 -115.499282 232 34093ft 392kts
07-Mar-21 14:17 35.455465 -115.598259 232 34091ft 392kts
07-Mar-21 14:18 35.385838 -115.691577 231 34103ft 393kts
07-Mar-21 14:19 35.309049 -115.794169 231 34095ft 393kts
07-Mar-21 14:20 35.235191 -115.892729 231 34045ft 392kts
07-Mar-21 14:21 35.159074 -115.989243 230 34050ft 397kts
07-Mar-21 14:22 35.082147 -116.085824 230 34055ft 397kts
07-Mar-21 14:23 35.005905 -116.181462 230 33446ft 373kts
07-Mar-21 14:24 34.935004 -116.270359 229 31164ft 361kts
07-Mar-21 14:25 34.872913 -116.348291 229 29616ft 360kts
07-Mar-21 14:26 34.792069 -116.451137 228 27544ft 397kts
07-Mar-21 14:27 34.718497 -116.544565 227 25720ft 371kts
07-Mar-21 14:28 34.642585 -116.627852 219 23777ft 375kts
07-Mar-21 14:29 34.574664 -116.693321 219 22352ft 364kts
07-Mar-21 14:30 34.505465 -116.760730 221 20013ft 346kts
07-Mar-21 14:31 34.428872 -116.848670 223 18064ft 336kts
07-Mar-21 14:32 34.361011 -116.927200 223 16235ft 330kts
07-Mar-21 14:33 34.295739 -117.002371 222 14595ft 319kts
07-Mar-21 14:34 34.227583 -117.065966 208 13610ft 314kts
07-Mar-21 14:35 34.153595 -117.115283 203 12777ft 307kts
07-Mar-21 14:36 34.076096 -117.155653 203 12108ft 304kts
07-Mar-21 14:37 34.001132 -117.199558 217 11695ft 293kts
07-Mar-21 14:38 33.948703 -117.266427 226 10952ft 276kts
07-Mar-21 14:39 33.899421 -117.334974 228 10011ft 260kts
07-Mar-21 14:40 33.854514 -117.397993 229 8725ft 248kts
07-Mar-21 14:41 33.813788 -117.462725 247 7874ft 247kts
07-Mar-21 14:42 33.790393 -117.538419 249 7291ft 242kts
07-Mar-21 14:43 33.767228 -117.614515 249 7200ft 244kts
07-Mar-21 14:44 33.745803 -117.685845 249 6510ft 242kts
07-Mar-21 14:45 33.724124 -117.759080 249 5207ft 238kts
07-Mar-21 14:46 33.708419 -117.812070 249 4486ft 236kts
07-Mar-21 14:47 33.688804 -117.878013 249 4075ft 234kts
07-Mar-21 14:48 33.662075 -117.945227 217 3809ft 197kts
07-Mar-21 14:49 33.662004 -117.987135 334 3249ft 204kts
07-Mar-21 14:50 33.698121 -118.007102 317 3016ft 199kts
07-Mar-21 14:51 33.727738 -118.042657 314 2416ft 197kts
07-Mar-21 14:52 33.755925 -118.076674 315 1609ft 168kts
07-Mar-21 14:53 33.777540 -118.102741 314 1016ft 148kts
07-Mar-21 14:54 33.796317 -118.125706 318 487ft 141kts
07-Mar-21 14:55 33.814348 -118.147298 316 75ft 140kts
07-Mar-21 14:56 33.822859 -118.157263 333 73ft 10kts
07-Mar-21 14:57 33.824723 -118.156437 75 73ft 3kts
07-Mar-21 14:59 33.821989 -118.155602 151 73ft 9kts
07-Mar-21 15:00 33.821640 -118.150156 90 73ft 23kts
07-Mar-21 15:01 33.819862 -118.147010 179 73ft 7kts
07-Mar-21 15:02 33.819396 -118.146103 88 73ft 0kts
07-Mar-21 15:03 33.819396 -118.146103 88 73ft 0kts

Navigation Log

Ident Type
Flight plan parsing failed, navigation log unavailable